Time;durP1;ratioP1;P1;durP2;ratioP2;P2;SDS_P1;SDS_P2;PMS_P1;PMS_P2;Temp;Humidity;BMP_temperature;BMP_pressure;BME280_temperature;BME280_humidity;BME280_pressure;Samples;Min_cycle;Max_cycle;Signal;HPM_P1;HPM_P2
2021/05/05 04:58:29;;;;;;;7.72;4.30;;;;;;;17.24;36.67;99724.91;1826211;76;22899;-59
2021/05/05 05:00:57;;;;;;;8.15;4.90;;;;;;;17.39;36.38;99723.55;1738806;81;21045;-60
2021/05/05 05:03:26;;;;;;;5.87;4.72;;;;;;;17.60;35.54;99722.92;1743006;80;21582;-63
2021/05/05 05:05:54;;;;;;;5.33;4.50;;;;;;;17.80;35.35;99713.27;1728174;81;22440;-63
2021/05/05 05:08:23;;;;;;;6.92;4.75;;;;;;;17.96;34.76;99715.34;1734594;80;21388;-63
2021/05/05 05:10:52;;;;;;;5.53;4.05;;;;;;;18.06;34.38;99717.94;1731338;80;21606;-61
2021/05/05 05:13:22;;;;;;;4.60;4.05;;;;;;;18.18;33.88;99712.37;1729085;80;21444;-61
2021/05/05 05:15:51;;;;;;;5.35;4.35;;;;;;;18.28;34.41;99711.86;1736627;82;22330;-63
2021/05/05 05:18:19;;;;;;;5.58;4.20;;;;;;;18.48;34.01;99706.52;1731366;80;21714;-61
2021/05/05 05:20:49;;;;;;;6.50;4.33;;;;;;;18.63;33.88;99701.98;1736130;82;21029;-63
2021/05/05 05:23:19;;;;;;;5.75;5.15;;;;;;;18.84;33.47;99703.53;1729542;80;21635;-65
2021/05/05 05:25:49;;;;;;;7.35;4.60;;;;;;;19.04;33.14;99700.31;1736543;80;21031;-65
2021/05/05 05:28:20;;;;;;;7.67;5.25;;;;;;;19.24;33.22;99698.70;1740270;80;21200;-63
2021/05/05 05:30:48;;;;;;;8.30;4.95;;;;;;;19.46;32.33;99688.70;1744178;82;21696;-63
2021/05/05 05:33:17;;;;;;;6.35;4.72;;;;;;;19.58;32.13;99687.03;1734475;82;21085;-63
2021/05/05 05:35:46;;;;;;;6.17;4.67;;;;;;;19.63;31.97;99691.83;1734686;82;21690;-62
2021/05/05 05:38:15;;;;;;;11.90;5.95;;;;;;;19.71;31.83;99690.58;1742660;80;21637;-62
2021/05/05 05:40:45;;;;;;;6.50;4.22;;;;;;;19.81;31.62;99687.37;1731410;80;23256;-65
2021/05/05 05:43:14;;;;;;;4.62;4.20;;;;;;;19.86;31.56;99683.78;1736183;80;21002;-64
2021/05/05 05:45:43;;;;;;;5.72;4.42;;;;;;;19.97;31.43;99686.67;1737709;80;21064;-63
2021/05/05 05:48:12;;;;;;;6.78;4.28;;;;;;;20.02;30.99;99680.89;1728032;80;21699;-65
2021/05/05 05:50:41;;;;;;;5.80;4.87;;;;;;;20.07;31.25;99687.38;1734562;80;21014;-63
2021/05/05 05:53:10;;;;;;;8.20;4.80;;;;;;;20.21;30.74;99693.42;1725389;82;22270;-61
2021/05/05 05:55:43;;;;;;;5.47;4.62;;;;;;;20.36;30.72;99684.92;1741391;80;21607;-63
2021/05/05 05:58:09;;;;;;;8.78;4.42;;;;;;;20.53;30.95;99685.35;1748926;80;21643;-64
2021/05/05 06:00:37;;;;;;;5.08;4.37;;;;;;;20.79;30.55;99679.53;1731459;81;21679;-63
2021/05/05 06:03:06;;;;;;;10.78;4.70;;;;;;;20.99;29.80;99677.42;1752272;80;21576;-65
2021/05/05 06:05:36;;;;;;;8.65;4.55;;;;;;;21.15;29.95;99677.97;1745598;81;21414;-63
2021/05/05 06:08:06;;;;;;;5.65;4.78;;;;;;;21.39;29.67;99682.49;1741563;81;21515;-64
2021/05/05 06:10:34;;;;;;;7.17;4.62;;;;;;;21.55;28.55;99675.40;1735589;81;22331;-64
2021/05/05 06:13:04;;;;;;;5.50;3.95;;;;;;;21.64;28.18;99674.88;1746133;80;21044;-64
2021/05/05 06:15:34;;;;;;;5.17;3.17;;;;;;;21.67;28.30;99675.88;1745637;80;21441;-62
2021/05/05 06:18:05;;;;;;;6.78;3.30;;;;;;;21.76;27.76;99679.36;1753169;81;21231;-61
2021/05/05 06:20:34;;;;;;;4.87;3.67;;;;;;;21.84;28.15;99673.56;1752161;81;21072;-63
2021/05/05 06:23:02;;;;;;;3.25;2.95;;;;;;;22.00;28.11;99673.19;1749557;81;21595;-62
2021/05/05 06:25:31;;;;;;;5.10;3.08;;;;;;;22.17;27.70;99669.05;1734390;81;21570;-62
2021/05/05 06:28:01;;;;;;;6.60;4.00;;;;;;;22.32;27.18;99667.87;1734888;81;21040;-60
2021/05/05 06:30:31;;;;;;;6.08;3.27;;;;;;;22.43;27.20;99666.65;1748725;80;21200;-60
2021/05/05 06:32:59;;;;;;;7.28;3.10;;;;;;;22.52;26.80;99659.83;1704852;81;21610;-63
2021/05/05 06:35:29;;;;;;;12.60;3.30;;;;;;;22.52;26.57;99661.66;1741596;80;21009;-68
2021/05/05 06:38:01;;;;;;;5.33;3.05;;;;;;;22.52;26.57;99661.66;1700244;81;21033;-70
2021/05/05 06:40:30;;;;;;;3.45;3.08;;;;;;;22.46;26.33;99661.83;1741068;80;21555;-62
2021/05/05 06:43:00;;;;;;;9.28;3.02;;;;;;;22.49;26.73;99659.34;1742215;81;22227;-65
2021/05/05 06:45:29;;;;;;;7.60;3.05;;;;;;;22.61;26.69;99650.84;1741702;80;21607;-62
2021/05/05 06:47:58;;;;;;;3.17;2.60;;;;;;;22.83;26.75;99659.88;1739412;80;21022;-64
2021/05/05 06:50:28;;;;;;;5.05;2.95;;;;;;;22.99;25.93;99650.17;1745736;80;21508;-64
2021/05/05 06:52:57;;;;;;;3.33;2.60;;;;;;;23.03;26.11;99649.66;1738674;80;21009;-63
2021/05/05 06:55:28;;;;;;;5.05;3.12;;;;;;;23.04;26.23;99641.19;1735289;81;21201;-65
2021/05/05 06:57:57;;;;;;;3.20;2.65;;;;;;;23.14;25.85;99647.10;1732319;81;20990;-65
2021/05/05 07:00:27;;;;;;;4.40;2.75;;;;;;;23.14;25.91;99644.45;1711907;81;21049;-65
2021/05/05 07:02:56;;;;;;;8.50;2.90;;;;;;;23.17;25.58;99652.06;1727803;82;21550;-64
2021/05/05 07:05:27;;;;;;;5.97;2.80;;;;;;;23.18;25.75;99647.08;1720530;81;20937;-63
2021/05/05 07:07:58;;;;;;;6.95;3.30;;;;;;;23.22;25.80;99646.52;1720830;81;22145;-66
2021/05/05 07:10:30;;;;;;;4.92;3.33;;;;;;;23.20;25.54;99647.20;1699759;81;21017;-63
2021/05/05 07:13:01;;;;;;;5.60;3.60;;;;;;;23.17;25.52;99640.94;1730324;80;21128;-62
2021/05/05 07:15:31;;;;;;;10.55;4.03;;;;;;;23.23;24.97;99644.19;1779179;78;21549;-61
2021/05/05 07:18:01;;;;;;;4.20;2.87;;;;;;;23.22;25.46;99642.53;1782260;78;21587;-61
2021/05/05 07:20:31;;;;;;;5.30;2.40;;;;;;;23.27;25.32;99642.84;1787739;78;21958;-59
2021/05/05 07:22:59;;;;;;;2.45;2.20;;;;;;;23.35;25.43;99640.63;1781642;78;21598;-64
2021/05/05 07:25:32;;;;;;;2.10;2.00;;;;;;;23.36;25.26;99634.81;1777841;78;21617;-64
2021/05/05 07:28:02;;;;;;;3.83;2.35;;;;;;;23.39;25.16;99633.95;1769156;81;21594;-65
2021/05/05 07:30:31;;;;;;;3.75;2.77;;;;;;;23.47;25.12;99639.71;1785114;79;21009;-62
2021/05/05 07:33:00;;;;;;;2.60;2.10;;;;;;;23.46;24.57;99640.22;1790370;78;22161;-64
2021/05/05 07:35:29;;;;;;;2.25;2.10;;;;;;;23.33;25.18;99632.00;1783216;79;20970;-62
2021/05/05 07:51:12;;;;;;;7.00;2.30;;;;;;;23.93;23.41;99631.19;1755343;79;21048;-63
2021/05/05 07:53:40;;;;;;;3.95;2.58;;;;;;;23.94;23.98;99621.70;1721578;83;21618;-64
2021/05/05 07:56:08;;;;;;;2.77;2.50;;;;;;;24.08;23.97;99617.38;1719837;83;21615;-63
2021/05/05 07:58:36;;;;;;;7.65;2.77;;;;;;;24.22;23.03;99617.88;1707112;82;21364;-63
2021/05/05 08:01:04;;;;;;;2.27;1.80;;;;;;;24.32;22.46;99622.14;1758853;79;21086;-65
2021/05/05 08:03:32;;;;;;;1.90;1.70;;;;;;;24.35;22.24;99615.13;1761235;79;21590;-64
2021/05/05 08:06:01;;;;;;;2.98;1.87;;;;;;;24.38;21.50;99615.58;1763681;81;20981;-65
2021/05/05 08:08:33;;;;;;;3.92;2.90;;;;;;;24.30;21.33;99617.00;1765738;81;21562;-65
2021/05/05 08:11:04;;;;;;;3.60;2.77;;;;;;;24.18;21.55;99603.80;1764643;81;21597;-65
2021/05/05 08:13:35;;;;;;;8.38;2.58;;;;;;;24.12;21.24;99607.19;1757994;79;21082;-65
2021/05/05 08:16:06;;;;;;;2.58;2.37;;;;;;;24.03;21.28;99599.80;1766718;79;21067;-66
2021/05/05 08:18:37;;;;;;;2.27;1.85;;;;;;;23.87;21.68;99592.84;1762091;81;21041;-67
2021/05/05 08:21:08;;;;;;;2.62;2.00;;;;;;;23.78;21.31;99593.93;1754194;79;20948;-66
2021/05/05 08:23:37;;;;;;;1.70;1.60;;;;;;;23.74;22.21;99582.00;1715940;81;21526;-68
2021/05/05 08:26:07;;;;;;;3.00;1.50;;;;;;;23.80;22.66;99583.11;1767243;81;21003;-67
2021/05/05 08:28:36;;;;;;;3.12;1.60;;;;;;;23.85;21.95;99573.59;1765414;79;21582;-67
2021/05/05 08:31:10;;;;;;;4.97;1.80;;;;;;;23.88;22.35;99585.69;1735496;81;21522;-65
2021/05/05 08:33:41;;;;;;;3.87;1.87;;;;;;;23.87;22.36;99575.56;1762115;81;21218;-66
2021/05/05 08:36:09;;;;;;;1.98;1.80;;;;;;;23.91;22.52;99575.52;1759152;79;21340;-65
2021/05/05 08:38:38;;;;;;;6.95;1.87;;;;;;;23.83;22.80;99572.94;1758946;81;20967;-66
2021/05/05 08:41:10;;;;;;;3.50;1.90;;;;;;;23.66;22.58;99563.47;1758627;79;21056;-65
2021/05/05 08:43:40;;;;;;;3.52;1.55;;;;;;;23.60;22.96;99572.98;1768927;81;21675;-66
2021/05/05 08:46:11;;;;;;;3.67;1.80;;;;;;;23.61;22.85;99569.83;1765411;79;21013;-65
2021/05/05 08:48:39;;;;;;;6.50;1.90;;;;;;;23.68;22.47;99560.13;1765736;79;22178;-67
2021/05/05 08:51:08;;;;;;;6.83;2.12;;;;;;;23.72;22.51;99548.63;1767490;81;21661;-70
2021/05/05 08:53:38;;;;;;;4.83;1.92;;;;;;;23.64;22.45;99550.86;1767503;81;20952;-67
2021/05/05 08:56:08;;;;;;;2.75;1.90;;;;;;;23.56;22.72;99563.76;1726079;81;21167;-64
2021/05/05 08:58:36;;;;;;;2.17;1.90;;;;;;;23.49;22.82;99556.14;1798323;78;21631;-62
2021/05/05 09:01:05;;;;;;;4.92;1.75;;;;;;;23.47;23.07;99547.52;1749363;81;21957;-65
2021/05/05 09:03:39;;;;;;;5.80;1.90;;;;;;;23.46;23.26;99546.38;1726217;83;21530;-65
2021/05/05 09:06:06;;;;;;;2.95;1.87;;;;;;;23.46;23.66;99554.35;1739131;80;20986;-65
2021/05/05 09:08:35;;;;;;;4.05;1.72;;;;;;;23.33;23.75;99552.80;1728122;80;21532;-64
2021/05/05 09:11:08;;;;;;;2.92;1.90;;;;;;;23.04;23.73;99542.42;1782008;79;21032;-61
2021/05/05 09:13:53;;;;;;;8.05;2.02;;;;;;;22.58;23.73;99534.41;1782565;79;21251;-63
2021/05/05 09:16:30;;;;;;;2.45;1.60;;;;;;;22.16;25.13;99527.34;1778458;78;21020;-62
2021/05/05 09:19:07;;;;;;;1.87;1.70;;;;;;;22.00;26.40;99530.84;1717076;81;21054;-65
2021/05/05 09:21:52;;;;;;;1.70;1.60;;;;;;;21.99;26.91;99518.62;1861810;75;22689;-65
2021/05/05 09:24:33;;;;;;;2.12;1.90;;;;;;;21.92;27.08;99516.32;1790905;79;20962;-62
2021/05/05 09:27:07;;;;;;;2.50;2.17;;;;;;;21.87;27.22;99507.55;1782780;79;21627;-62
2021/05/05 09:29:43;;;;;;;4.83;2.45;;;;;;;21.88;27.51;99516.33;1783448;79;21024;-62
2021/05/05 09:32:16;;;;;;;1.80;1.70;;;;;;;21.79;28.08;99506.75;1803503;78;20989;-64
2021/05/05 09:35:02;;;;;;;4.03;1.90;;;;;;;21.75;28.19;99512.06;1802506;79;21025;-65
2021/05/05 09:37:30;;;;;;;3.45;2.10;;;;;;;21.69;28.16;99493.69;1791491;78;21127;-66
2021/05/05 09:40:08;;;;;;;16.95;2.55;;;;;;;21.64;29.30;99488.06;1756165;80;22107;-65
2021/05/05 09:42:37;;;;;;;5.45;2.45;;;;;;;21.64;29.30;99488.06;1770071;79;20965;-63
2021/05/05 09:45:12;;;;;;;1.90;1.80;;;;;;;21.68;29.59;99493.86;1770784;80;21044;-65
2021/05/05 09:47:58;;;;;;;6.62;2.27;;;;;;;21.71;29.90;99486.89;1777533;80;20953;-65
2021/05/05 09:50:38;;;;;;;;;;;;;;;21.67;30.79;99497.50;1776218;80;21052;-67
2021/05/05 09:53:23;;;;;;;12.80;2.87;;;;;;;21.35;31.67;99491.30;1764145;80;21208;-68
2021/05/05 09:56:00;;;;;;;5.95;2.60;;;;;;;21.35;31.67;99491.30;1778552;80;21044;-63
2021/05/05 09:58:38;;;;;;;6.03;2.42;;;;;;;21.28;32.23;99491.63;1772027;80;21138;-64
2021/05/05 10:01:14;;;;;;;4.33;2.10;;;;;;;21.24;32.73;99487.16;1784626;78;21814;-65
2021/05/05 10:03:55;;;;;;;9.80;2.22;;;;;;;21.24;33.53;99476.57;1787129;78;21002;-66
2021/05/05 10:06:39;;;;;;;4.87;2.20;;;;;;;21.23;33.81;99482.03;1781240;79;21265;-65
2021/05/05 10:09:11;;;;;;;2.42;2.10;;;;;;;21.20;33.80;99472.57;1786034;79;21663;-65
2021/05/05 10:11:43;;;;;;;2.58;2.10;;;;;;;21.14;33.93;99471.95;1810663;78;21468;-62
2021/05/05 10:14:14;;;;;;;3.17;2.33;;;;;;;21.05;34.17;99465.00;1765629;79;20985;-63
2021/05/05 10:16:46;;;;;;;3.55;2.30;;;;;;;20.99;34.19;99469.63;1759821;80;20958;-63
2021/05/05 10:19:30;;;;;;;9.78;2.60;;;;;;;20.99;34.19;99469.63;1795088;78;22321;-65
2021/05/05 10:22:06;;;;;;;2.55;2.10;;;;;;;21.06;34.42;99461.36;1772190;79;21046;-62
2021/05/05 10:24:45;;;;;;;3.83;2.10;;;;;;;21.05;34.34;99459.70;1749405;80;21054;-63
2021/05/05 10:27:14;;;;;;;9.75;3.27;;;;;;;20.96;34.64;99457.55;1768183;80;21208;-63
2021/05/05 10:29:44;;;;;;;2.45;2.25;;;;;;;20.88;35.36;99449.61;1782449;80;21614;-63
2021/05/05 10:32:14;;;;;;;6.12;2.30;;;;;;;20.83;35.86;99437.87;1739338;81;22023;-62
2021/05/05 10:34:44;;;;;;;1.80;1.70;;;;;;;20.84;35.31;99442.17;1782378;79;21064;-61
2021/05/05 10:37:13;;;;;;;5.83;2.52;;;;;;;20.85;35.14;99443.82;1757611;79;21006;-61
2021/05/05 10:39:46;;;;;;;7.97;2.40;;;;;;;20.86;35.17;99439.69;1780072;79;20965;-61
2021/05/05 10:42:19;;;;;;;3.17;2.10;;;;;;;20.87;34.42;99436.05;1752698;81;21607;-63
2021/05/05 10:44:55;;;;;;;3.12;2.30;;;;;;;20.88;34.80;99443.49;1756476;79;21198;-61
2021/05/05 10:47:35;;;;;;;3.92;2.20;;;;;;;20.89;35.32;99444.66;1777639;79;20950;-60
2021/05/05 10:50:13;;;;;;;3.62;2.35;;;;;;;20.92;34.63;99435.55;1775857;79;21049;-60
2021/05/05 10:52:47;;;;;;;3.98;1.98;;;;;;;20.94;34.75;99417.69;1753638;79;21140;-60
2021/05/05 10:55:19;;;;;;;5.28;2.12;;;;;;;21.03;34.15;99422.48;1774834;79;21045;-62
2021/05/05 10:58:11;;;;;;;2.15;1.95;;;;;;;21.07;34.40;99409.23;1737322;80;22887;-58
2021/05/05 11:00:56;;;;;;;3.30;2.37;;;;;;;21.10;34.10;99408.41;1770567;79;21152;-61
2021/05/05 11:03:47;;;;;;;2.45;2.12;;;;;;;21.12;33.35;99407.74;1775821;80;21084;-61
2021/05/05 11:06:36;;;;;;;8.40;2.30;;;;;;;21.09;33.28;99402.78;1770456;80;21037;-59
2021/05/05 11:09:16;;;;;;;9.33;2.17;;;;;;;21.12;32.54;99407.74;1775112;79;21166;-60
2021/05/05 11:11:50;;;;;;;3.83;2.37;;;;;;;21.17;32.16;99396.16;1769889;79;22212;-61
2021/05/05 11:14:33;;;;;;;3.77;2.22;;;;;;;21.17;32.16;99396.16;1777140;80;21197;-62
2021/05/05 11:17:06;;;;;;;4.05;2.58;;;;;;;21.19;32.50;99386.72;1763125;80;20941;-63
2021/05/05 11:19:42;;;;;;;2.40;2.20;;;;;;;21.20;32.39;99389.66;1773091;80;21633;-61
2021/05/05 11:22:32;;;;;;;4.37;2.50;;;;;;;21.20;33.03;99385.20;1768422;80;21052;-66
2021/05/05 11:25:19;;;;;;;6.87;2.50;;;;;;;21.25;32.28;99388.69;1765704;79;21033;-61
2021/05/05 11:27:51;;;;;;;8.15;2.25;;;;;;;21.32;31.61;99383.05;1687428;80;21255;-64
2021/05/05 11:30:42;;;;;;;4.45;2.20;;;;;;;21.35;31.73;99383.20;1760577;79;21663;-65
2021/05/05 11:33:11;;;;;;;3.62;2.20;;;;;;;21.27;31.08;99382.23;1763631;80;20990;-63
2021/05/05 11:35:40;;;;;;;4.42;2.08;;;;;;;21.17;32.28;99388.21;1771402;80;20954;-66
2021/05/05 11:38:23;;;;;;;3.90;2.40;;;;;;;21.00;32.82;99383.94;1761931;79;22273;-63
2021/05/05 11:41:00;;;;;;;8.73;2.55;;;;;;;20.92;32.55;99375.51;1769957;79;21085;-64
2021/05/05 11:43:34;;;;;;;4.28;2.08;;;;;;;20.92;32.55;99375.51;1767021;80;21048;-63
2021/05/05 11:46:06;;;;;;;3.95;3.20;;;;;;;20.93;32.29;99379.81;1824701;77;21091;-63
2021/05/05 11:48:38;;;;;;;8.05;3.00;;;;;;;21.00;31.97;99373.84;1821175;77;21080;-64
2021/05/05 11:51:26;;;;;;;8.00;2.58;;;;;;;21.05;31.18;99376.31;1790858;79;21368;-69
2021/05/05 11:53:54;;;;;;;6.42;2.50;;;;;;;21.08;31.15;99379.12;1762013;80;21033;-65
2021/05/05 11:56:26;;;;;;;5.72;2.65;;;;;;;21.06;30.77;99384.59;1770213;80;21489;-62
2021/05/05 11:59:01;;;;;;;3.85;1.87;;;;;;;21.00;30.71;99383.11;1785458;79;21033;-63
2021/05/05 12:01:36;;;;;;;2.47;1.90;;;;;;;20.91;30.74;99364.59;1733086;82;20914;-60
2021/05/05 12:04:21;;;;;;;4.03;2.33;;;;;;;20.84;29.86;99366.25;1769044;81;21185;-64
2021/05/05 12:06:56;;;;;;;4.17;2.15;;;;;;;20.76;29.22;99363.64;1768193;80;21644;-62
2021/05/05 12:09:32;;;;;;;5.75;2.50;;;;;;;20.70;29.27;99368.28;1772616;80;21674;-66
2021/05/05 12:12:18;;;;;;;3.00;2.10;;;;;;;20.64;29.78;99362.33;1762081;79;21068;-63
2021/05/05 12:14:54;;;;;;;5.00;2.05;;;;;;;20.58;30.50;99353.23;1772955;80;21615;-66
2021/05/05 12:17:31;;;;;;;4.60;1.70;;;;;;;20.56;28.53;99361.83;1812506;79;21508;-65
2021/05/05 12:20:10;;;;;;;5.58;2.20;;;;;;;20.52;28.59;99361.83;1774911;80;20920;-63
2021/05/05 12:22:56;;;;;;;7.17;1.95;;;;;;;20.49;29.50;99356.05;1780332;79;20980;-62
2021/05/05 12:25:28;;;;;;;3.40;2.00;;;;;;;20.45;29.62;99350.25;1760944;80;21165;-62
2021/05/05 12:28:11;;;;;;;4.95;2.20;;;;;;;20.43;30.18;99342.16;1764830;78;21052;-66
2021/05/05 12:30:47;;;;;;;4.78;2.22;;;;;;;20.39;30.96;99354.91;1780899;79;22080;-63
2021/05/05 12:33:21;;;;;;;4.75;2.08;;;;;;;20.36;30.42;99356.53;1777815;79;21027;-63
2021/05/05 12:35:49;;;;;;;4.55;2.02;;;;;;;20.37;30.51;99362.64;1769194;79;20994;-62
2021/05/05 12:38:18;;;;;;;2.47;1.80;;;;;;;20.35;29.85;99346.94;1780027;79;21604;-62
2021/05/05 12:40:47;;;;;;;7.53;2.22;;;;;;;20.35;29.72;99353.55;1778573;79;21045;-64
2021/05/05 12:43:21;;;;;;;5.72;1.87;;;;;;;20.33;29.65;99347.60;1803260;79;21551;-62
2021/05/05 12:45:51;;;;;;;3.15;1.72;;;;;;;20.31;30.20;99350.91;1768934;80;20998;-63
2021/05/05 12:48:26;;;;;;;7.05;2.05;;;;;;;20.29;30.15;99346.28;1764082;80;20979;-63
2021/05/05 12:51:10;;;;;;;6.17;2.30;;;;;;;20.25;29.74;99343.13;1771236;79;21021;-65
2021/05/05 12:53:49;;;;;;;2.30;2.05;;;;;;;20.21;29.60;99333.05;1759835;80;21599;-64
2021/05/05 12:56:19;;;;;;;3.87;1.90;;;;;;;20.17;30.36;99333.87;1801823;79;22081;-63
2021/05/05 12:58:50;;;;;;;2.35;2.12;;;;;;;20.17;31.10;99336.52;1802780;79;21733;-64
2021/05/05 13:01:18;;;;;;;3.33;2.25;;;;;;;20.18;30.95;99327.59;1741279;79;21548;-63
2021/05/05 13:03:47;;;;;;;5.70;2.60;;;;;;;20.20;30.96;99338.00;1765226;80;21658;-65
2021/05/05 13:06:17;;;;;;;5.87;2.15;;;;;;;20.17;31.21;99337.84;1800361;79;21187;-64
2021/05/05 13:08:52;;;;;;;2.35;2.00;;;;;;;20.13;31.57;99328.58;1766671;79;21189;-61
2021/05/05 13:11:33;;;;;;;2.55;2.33;;;;;;;20.10;31.75;99332.87;1787552;79;21006;-63
2021/05/05 13:14:07;;;;;;;3.17;2.00;;;;;;;20.09;32.22;99318.50;1779334;80;22301;-67
2021/05/05 13:31:32;;;;;;;6.28;2.62;;;;;;;20.02;31.02;99310.39;1774117;78;21018;-63
2021/05/05 13:34:07;;;;;;;2.92;1.77;;;;;;;19.98;30.92;99313.06;1780899;79;21573;-64
2021/05/05 13:36:58;;;;;;;3.58;2.22;;;;;;;19.98;30.88;99305.13;1775670;79;21185;-63
2021/05/05 13:39:36;;;;;;;5.87;2.10;;;;;;;19.99;31.05;99301.50;1772369;79;21570;-64
2021/05/05 13:42:09;;;;;;;6.40;2.15;;;;;;;19.98;30.28;99295.39;1794209;79;21587;-65
2021/05/05 13:44:55;;;;;;;2.47;2.10;;;;;;;19.99;30.79;99305.46;1770988;81;21580;-62
2021/05/05 13:49:56;;;;;;;3.35;2.67;;;;;;;20.01;30.29;99299.98;1772504;79;22231;-63
2021/05/05 13:52:26;;;;;;;3.08;2.20;;;;;;;19.98;30.73;99293.23;1789836;79;21651;-63
2021/05/05 13:54:56;;;;;;;6.15;3.15;;;;;;;19.96;31.07;99288.12;1770413;80;21515;-65
2021/05/05 13:57:26;;;;;;;5.05;2.55;;;;;;;19.95;31.07;99293.07;1784035;79;21025;-65
2021/05/05 13:59:56;;;;;;;6.60;2.10;;;;;;;19.94;30.88;99290.09;1758631;80;21590;-64
2021/05/05 14:02:24;;;;;;;7.35;3.15;;;;;;;19.94;31.11;99282.17;1753414;80;21943;-63
2021/05/05 14:04:54;;;;;;;4.92;3.00;;;;;;;19.93;30.80;99283.16;1752169;81;21679;-62
2021/05/05 14:07:23;;;;;;;11.33;2.67;;;;;;;19.93;30.60;99293.73;1767986;79;21492;-65
2021/05/05 14:09:51;;;;;;;4.90;2.20;;;;;;;19.94;29.98;99280.84;1788592;79;21172;-63
2021/05/05 14:12:20;;;;;;;4.33;2.15;;;;;;;19.93;29.99;99284.48;1760739;80;21055;-65
2021/05/05 14:14:49;;;;;;;6.80;2.30;;;;;;;19.95;29.94;99282.50;1803333;79;21873;-65
